Riverton, Utah
Current Conditions -  °F | °C
As of 3:53 AM on Friday 31 Oct 2014 (Local Time) from KSLC Reporting Station
Scattered Clouds Scattered Clouds  
Wind Chill: 55°   Ceiling: Unl
Heat Index: 55°   Visibility: 10mi
Dew Point: 27°   Wind: 15mph
Humidity: 34%   Direction: 130°SE
Pressure: 30.04"   Gusts: NA
Location:  40.52°N, 111.93°W
Report Text: KSLC 310953Z 13013KT 10SM SCT250 13/M03 A3004 RMK AO2 SLP137 T01281028
Loading
Personal Weather Stations






























Interactive Weather Map
Tropical Storm Tracking
New forecast layout! Learn more

10-Day Weather Forecast

Advertisements
Track Severe Weather on mobile